Time;durP1;ratioP1;P1;durP2;ratioP2;P2;SDS_P1;SDS_P2;PMS_P1;PMS_P2;Temp;Humidity;BMP_temperature;BMP_pressure;BME280_temperature;BME280_humidity;BME280_pressure;Samples;Min_cycle;Max_cycle;Signal;HPM_P1;HPM_P2
2021/10/14 00:02:05;;;;;;;26.30;12.88;;;11.60;99.90;;;;;;4950696;28;20053;-84
2021/10/14 00:04:33;;;;;;;20.17;10.80;;;11.60;99.90;;;;;;4990862;28;20050;-83
2021/10/14 00:07:02;;;;;;;24.63;12.20;;;11.60;99.90;;;;;;4982837;28;20050;-81
2021/10/14 00:09:33;;;;;;;23.88;10.75;;;11.60;99.90;;;;;;4967967;28;20496;-82
2021/10/14 00:12:11;;;;;;;27.30;12.23;;;10.30;99.90;;;;;;4972285;28;20064;-87
2021/10/14 00:14:40;;;;;;;18.50;10.13;;;11.60;99.90;;;;;;4979203;28;20047;-82
2021/10/14 00:17:13;;;;;;;28.15;12.25;;;11.60;99.90;;;;;;4953036;28;20072;-83
2021/10/14 00:19:48;;;;;;;22.48;11.23;;;11.50;99.90;;;;;;4965920;28;20047;-82
2021/10/14 00:22:16;;;;;;;23.20;10.88;;;11.60;99.90;;;;;;4966392;28;20054;-84
2021/10/14 00:24:44;;;;;;;21.73;11.20;;;11.60;99.90;;;;;;4968820;28;20059;-83
2021/10/14 00:27:15;;;;;;;22.67;10.98;;;11.60;99.90;;;;;;4984952;28;20050;-82
2021/10/14 00:29:57;;;;;;;27.30;12.13;;;11.60;99.90;;;;;;4970146;28;20051;-83
2021/10/14 00:32:25;;;;;;;26.33;11.80;;;11.60;99.90;;;;;;4989476;28;20060;-84
2021/10/14 00:34:53;;;;;;;23.08;10.70;;;11.60;99.90;;;;;;4984135;28;20035;-83
2021/10/14 00:37:22;;;;;;;28.08;13.93;;;11.60;99.90;;;;;;4968368;28;20065;-83
2021/10/14 00:39:54;;;;;;;23.30;11.25;;;11.50;99.90;;;;;;4984810;28;20061;-82
2021/10/14 00:42:31;;;;;;;24.38;10.85;;;11.50;99.90;;;;;;4965414;28;20051;-85
2021/10/14 00:45:10;;;;;;;32.13;11.93;;;11.50;99.90;;;;;;4984345;28;20058;-83
2021/10/14 00:47:49;;;;;;;23.48;11.55;;;11.60;99.90;;;;;;4983831;28;20058;-82
2021/10/14 00:50:23;;;;;;;24.60;12.30;;;11.60;99.90;;;;;;4959383;28;20050;-82
2021/10/14 00:53:00;;;;;;;22.42;11.80;;;11.60;99.90;;;;;;4967544;28;20054;-85
2021/10/14 00:55:29;;;;;;;25.25;10.30;;;11.60;99.90;;;;;;4968764;28;20059;-85
2021/10/14 00:57:59;;;;;;;27.58;12.30;;;11.60;99.90;;;;;;4985843;28;20053;-86
2021/10/14 01:00:27;;;;;;;20.00;10.75;;;11.70;99.90;;;;;;4968972;28;20054;-85
2021/10/14 01:02:56;;;;;;;25.42;11.27;;;11.70;99.90;;;;;;4978116;28;20043;-84
2021/10/14 01:05:26;;;;;;;22.13;10.50;;;11.70;99.90;;;;;;5003186;28;20050;-86
2021/10/14 01:07:57;;;;;;;24.58;10.90;;;11.80;99.90;;;;;;4991384;28;20042;-82
2021/10/14 01:10:32;;;;;;;22.42;10.80;;;11.80;99.90;;;;;;4989253;28;20046;-85
2021/10/14 01:13:11;;;;;;;23.27;12.00;;;11.80;99.90;;;;;;4993734;28;20070;-83
2021/10/14 01:15:48;;;;;;;19.60;10.85;;;11.80;99.90;;;;;;4974126;28;20046;-86
2021/10/14 01:18:17;;;;;;;19.08;10.63;;;11.90;99.90;;;;;;5005484;28;20046;-86
2021/10/14 01:20:55;;;;;;;21.83;9.85;;;11.90;99.90;;;;;;5004497;28;20053;-82
2021/10/14 01:23:26;;;;;;;21.10;10.63;;;11.90;99.90;;;;;;4979301;28;20062;-83
2021/10/14 01:26:02;;;;;;;23.38;10.75;;;12.00;99.90;;;;;;4999121;28;20054;-86
2021/10/14 01:28:42;;;;;;;20.60;10.95;;;12.00;99.90;;;;;;5007450;28;20041;-84
2021/10/14 01:31:12;;;;;;;19.30;10.25;;;12.10;99.90;;;;;;4979550;28;20061;-85
2021/10/14 01:33:40;;;;;;;25.58;11.20;;;11.80;99.90;;;;;;4974567;28;20060;-85
2021/10/14 01:36:19;;;;;;;19.50;10.60;;;12.20;99.90;;;;;;4983726;28;20053;-85
2021/10/14 01:38:56;;;;;;;22.42;11.55;;;12.20;99.90;;;;;;4992154;28;20052;-85
2021/10/14 01:41:25;;;;;;;22.55;10.85;;;12.20;99.90;;;;;;4988738;28;20054;-84
2021/10/14 01:43:53;;;;;;;21.20;10.32;;;12.30;99.90;;;;;;4986865;28;20061;-86
2021/10/14 01:46:29;;;;;;;19.67;10.38;;;12.30;99.90;;;;;;4973772;28;20066;-84
2021/10/14 01:48:58;;;;;;;18.60;10.52;;;12.30;99.90;;;;;;4955481;28;20046;-84
2021/10/14 01:51:26;;;;;;;22.13;10.38;;;12.30;99.90;;;;;;5002299;28;20050;-83
2021/10/14 01:54:26;;;;;;;26.27;11.57;;;12.40;99.90;;;;;;4990720;28;20064;-84
2021/10/14 01:57:15;;;;;;;19.85;10.38;;;12.40;99.90;;;;;;5004410;28;20047;-83
2021/10/14 01:59:45;;;;;;;20.95;11.20;;;12.40;99.90;;;;;;5001516;28;20058;-83
2021/10/14 02:02:37;;;;;;;20.52;10.05;;;11.60;99.90;;;;;;4987435;28;20050;-84
2021/10/14 02:06:04;;;;;;;;;;;;;;;;;;;;;
2021/10/14 02:09:04;;;;;;;16.27;8.65;;;12.50;99.90;;;;;;4985735;28;20062;-83
2021/10/14 02:11:50;;;;;;;;;;;;;;;;;;;;;
2021/10/14 02:14:33;;;;;;;;;;;;;;;;;;;;;
2021/10/14 02:17:10;;;;;;;19.25;10.27;;;12.60;99.90;;;;;;5019129;28;20065;-84
2021/10/14 02:19:39;;;;;;;19.98;10.63;;;12.50;99.90;;;;;;4990179;28;20042;-84
2021/10/14 02:22:19;;;;;;;17.90;9.60;;;12.60;99.90;;;;;;5011060;28;20064;-83
2021/10/14 02:25:07;;;;;;;31.15;10.73;;;12.60;99.90;;;;;;5007782;28;20578;-86
2021/10/14 02:27:36;;;;;;;20.50;10.60;;;12.60;99.90;;;;;;4993943;28;20045;-84
2021/10/14 02:30:19;;;;;;;20.80;10.63;;;12.60;99.90;;;;;;4991191;28;20054;-84
2021/10/14 02:33:14;;;;;;;18.02;8.95;;;12.60;99.90;;;;;;5012713;28;20049;-84
2021/10/14 02:35:56;;;;;;;17.02;10.13;;;12.60;99.90;;;;;;5003580;28;20042;-84
2021/10/14 02:39:16;;;;;;;16.25;8.20;;;12.60;99.90;;;;;;5004884;28;20057;-84
2021/10/14 02:42:04;;;;;;;20.00;9.27;;;11.50;99.90;;;;;;5005945;28;20572;-85
2021/10/14 02:45:05;;;;;;;17.08;8.95;;;12.60;99.90;;;;;;5004111;28;20065;-83
2021/10/14 02:47:50;;;;;;;17.70;9.43;;;12.70;99.90;;;;;;5005826;28;20068;-84
2021/10/14 02:50:36;;;;;;;20.33;9.30;;;12.60;99.90;;;;;;5005136;28;20046;-85
2021/10/14 02:53:05;;;;;;;22.48;9.77;;;11.70;99.90;;;;;;5017857;28;20117;-84
2021/10/14 02:55:53;;;;;;;;;;;;;;;;;;;;;
2021/10/14 02:58:37;;;;;;;14.75;8.23;;;12.60;99.90;;;;;;5004328;28;20042;-84
2021/10/14 03:02:02;;;;;;;;;;;;;;;;;;;;;
2021/10/14 03:04:48;;;;;;;18.02;10.10;;;12.60;99.90;;;;;;4991649;28;20465;-84
2021/10/14 03:07:31;;;;;;;25.25;10.43;;;12.80;99.90;;;;;;4985541;28;20047;-85
2021/10/14 03:10:27;;;;;;;19.85;9.77;;;12.70;99.90;;;;;;5002208;28;20483;-83
2021/10/14 03:19:47;;;;;;;20.73;9.50;;;12.60;99.90;;;;;;5004782;28;20067;-84
2021/10/14 03:22:35;;;;;;;;;;;;;;;;;;;;;
2021/10/14 03:25:50;;;;;;;25.83;11.43;;;12.90;99.90;;;;;;5005659;28;20046;-84
2021/10/14 03:29:23;;;;;;;18.70;11.05;;;12.70;99.90;;;;;;4980462;28;20054;-85
2021/10/14 03:32:25;;;;;;;23.38;13.10;;;12.70;99.90;;;;;;4979820;28;20077;-85
2021/10/14 03:35:14;;;;;;;;;;;;;;;;;;;;;
2021/10/14 03:38:13;;;;;;;19.13;9.35;;;12.80;99.90;;;;;;4975113;28;20064;-85
2021/10/14 03:41:29;;;;;;;24.45;11.43;;;12.70;99.90;;;;;;4968191;28;20054;-84
2021/10/14 03:44:03;;;;;;;23.13;11.07;;;12.90;99.90;;;;;;4963076;28;20057;-85
2021/10/14 03:47:05;;;;;;;24.92;12.00;;;12.80;99.90;;;;;;5003348;28;20059;-84
2021/10/14 03:50:41;;;;;;;19.90;11.30;;;12.90;99.90;;;;;;4967696;28;20050;-85
2021/10/14 03:54:00;;;;;;;;;;;;;;;;;;;;;
2021/10/14 03:56:52;;;;;;;;;;;12.90;99.90;;;;;;4896418;29;20087;-85
2021/10/14 03:59:24;;;;;;;19.05;9.75;;;12.90;99.90;;;;;;4913085;29;19938;-84
2021/10/14 04:02:48;;;;;;;17.80;10.13;;;12.90;99.90;;;;;;4910479;29;20062;-84
2021/10/14 04:09:02;;;;;;;21.27;12.20;;;13.00;99.90;;;;;;4962336;28;20058;-83
2021/10/14 04:11:58;;;;;;;20.60;10.43;;;13.00;99.90;;;;;;5010036;28;20051;-84
2021/10/14 04:14:44;;;;;;;21.38;11.23;;;13.00;99.90;;;;;;4993837;28;20046;-83
2021/10/14 04:17:24;;;;;;;23.10;11.30;;;13.00;99.90;;;;;;5004980;28;20513;-85
2021/10/14 04:20:41;;;;;;;28.23;10.80;;;13.00;99.90;;;;;;5000949;28;20053;-85
2021/10/14 04:23:20;;;;;;;22.50;10.45;;;12.30;99.90;;;;;;4995474;28;20058;-86
2021/10/14 04:26:14;;;;;;;21.35;10.93;;;13.10;99.90;;;;;;4992638;28;20046;-83
2021/10/14 04:29:26;;;;;;;24.80;10.93;;;12.70;99.90;;;;;;4991699;28;20049;-85
2021/10/14 04:32:18;;;;;;;21.17;11.48;;;13.10;99.90;;;;;;5007078;28;20050;-84
2021/10/14 04:35:19;;;;;;;;;;;;;;;;;;;;;
2021/10/14 04:37:54;;;;;;;22.95;11.73;;;13.00;99.90;;;;;;4999070;28;20050;-84
2021/10/14 04:40:38;;;;;;;21.20;11.07;;;13.00;99.90;;;;;;4997730;28;20058;-84
2021/10/14 04:43:24;;;;;;;;;;;13.00;99.90;;;;;;5007227;28;20047;-84
2021/10/14 04:46:40;;;;;;;;;;;;;;;;;;;;;
2021/10/14 04:49:39;;;;;;;20.65;9.88;;;13.00;99.90;;;;;;4970284;28;20061;-84
2021/10/14 04:52:22;;;;;;;;;;;;;;;;;;;;;
2021/10/14 04:54:57;;;;;;;18.30;9.75;;;13.40;99.90;;;;;;4993940;28;20051;-85
2021/10/14 04:57:55;;;;;;;20.13;11.18;;;11.90;99.90;;;;;;5005772;28;20043;-84
2021/10/14 05:00:28;;;;;;;21.63;10.35;;;13.00;99.90;;;;;;4989798;28;20046;-85
2021/10/14 05:02:56;;;;;;;19.00;10.30;;;13.00;99.90;;;;;;5002433;28;20046;-83
2021/10/14 05:05:29;;;;;;;19.85;10.50;;;13.00;99.90;;;;;;5003980;28;20042;-85
2021/10/14 05:07:58;;;;;;;20.23;10.20;;;13.00;99.90;;;;;;4996325;28;20053;-86
2021/10/14 05:10:26;;;;;;;21.58;11.10;;;13.00;99.90;;;;;;4967779;28;20055;-84
2021/10/14 05:12:55;;;;;;;22.50;11.55;;;12.90;99.90;;;;;;4969522;28;20046;-85
2021/10/14 05:15:29;;;;;;;22.45;9.85;;;12.90;99.90;;;;;;4986683;28;20050;-87
2021/10/14 05:17:58;;;;;;;20.73;11.10;;;12.90;99.90;;;;;;4973329;28;20058;-85
2021/10/14 05:20:27;;;;;;;20.17;10.02;;;12.90;99.90;;;;;;4972388;28;20054;-84
2021/10/14 05:22:59;;;;;;;22.58;10.60;;;12.90;99.90;;;;;;4982699;28;20058;-84
2021/10/14 05:25:30;;;;;;;21.33;12.18;;;12.90;99.90;;;;;;5007772;28;20916;-83
2021/10/14 05:28:03;;;;;;;22.05;11.52;;;12.90;99.90;;;;;;4968804;28;20057;-85
2021/10/14 05:30:31;;;;;;;32.65;10.35;;;12.90;99.90;;;;;;4994515;28;20070;-86
2021/10/14 05:32:59;;;;;;;23.98;11.32;;;12.90;99.90;;;;;;4986300;28;20385;-82
2021/10/14 05:35:38;;;;;;;19.45;10.68;;;12.90;99.90;;;;;;4980928;28;20057;-84
2021/10/14 05:38:07;;;;;;;19.42;8.57;;;12.90;99.90;;;;;;4974588;28;20053;-84
2021/10/14 05:40:36;;;;;;;18.45;11.13;;;12.90;99.90;;;;;;4992537;28;20050;-85
2021/10/14 05:43:05;;;;;;;18.42;10.57;;;12.90;99.90;;;;;;4992442;28;20059;-84
2021/10/14 05:45:34;;;;;;;27.45;12.07;;;12.90;99.90;;;;;;4993378;28;20061;-84
2021/10/14 05:48:02;;;;;;;21.15;10.90;;;12.90;99.90;;;;;;4993626;28;20060;-86
2021/10/14 05:50:30;;;;;;;19.35;9.32;;;12.90;99.90;;;;;;4991101;28;20046;-85
2021/10/14 05:52:58;;;;;;;21.15;10.60;;;12.80;99.90;;;;;;4974819;28;20054;-84
2021/10/14 05:55:28;;;;;;;20.65;10.43;;;12.80;99.90;;;;;;5022644;28;20056;-84
2021/10/14 05:57:59;;;;;;;24.70;10.90;;;12.80;99.90;;;;;;4968912;28;20060;-85
2021/10/14 06:00:33;;;;;;;18.83;9.95;;;12.80;99.90;;;;;;5007212;28;20053;-86
2021/10/14 06:03:02;;;;;;;21.48;9.55;;;12.90;99.90;;;;;;4981764;28;20050;-85
2021/10/14 06:05:33;;;;;;;23.30;10.82;;;12.80;99.90;;;;;;4998310;28;20038;-86
2021/10/14 06:08:08;;;;;;;22.38;10.02;;;12.80;99.90;;;;;;4947635;28;20055;-85
2021/10/14 06:11:03;;;;;;;21.30;11.02;;;12.70;99.90;;;;;;4980354;28;20069;-85
2021/10/14 06:13:34;;;;;;;20.23;9.57;;;12.60;99.90;;;;;;4999479;28;20038;-85
2021/10/14 06:16:06;;;;;;;26.77;11.80;;;12.50;99.90;;;;;;4987753;28;20046;-85
2021/10/14 06:18:39;;;;;;;23.23;12.70;;;12.50;99.90;;;;;;4987039;28;20061;-84
2021/10/14 06:21:11;;;;;;;22.15;11.07;;;12.40;99.90;;;;;;4969778;28;20139;-85
2021/10/14 06:23:46;;;;;;;22.70;11.15;;;12.90;99.90;;;;;;5002999;28;20072;-86
2021/10/14 06:26:19;;;;;;;19.75;10.40;;;12.30;99.90;;;;;;4986775;28;20198;-87
2021/10/14 06:29:22;;;;;;;21.42;10.75;;;12.20;99.90;;;;;;4998613;28;20058;-85
2021/10/14 06:32:33;;;;;;;;;;;;;;;;;;;;;
2021/10/14 06:36:04;;;;;;;22.95;11.45;;;12.30;99.90;;;;;;4966118;28;20056;-87
2021/10/14 06:38:54;;;;;;;23.67;12.43;;;12.10;99.90;;;;;;4969191;28;20061;-87
2021/10/14 06:46:18;;;;;;;22.40;10.70;;;11.90;99.90;;;;;;5011334;28;20038;-88
2021/10/14 06:49:17;;;;;;;20.20;11.93;;;11.00;99.90;;;;;;4974559;28;20050;-88
2021/10/14 06:52:34;;;;;;;22.08;10.80;;;11.90;99.90;;;;;;4991958;28;20344;-88
2021/10/14 06:55:52;;;;;;;21.20;10.98;;;11.90;99.90;;;;;;4982974;28;20046;-87
2021/10/14 07:00:23;;;;;;;;;;;;;;;;;;;;;
2021/10/14 07:04:25;;;;;;;26.58;11.15;;;11.80;99.90;;;;;;4866340;29;20554;-87
2021/10/14 07:12:05;;;;;;;21.38;10.55;;;11.90;99.90;;;;;;4904780;29;20147;-87
2021/10/14 07:15:04;;;;;;;21.20;10.63;;;11.90;99.90;;;;;;4908625;29;20044;-88
2021/10/14 07:17:40;;;;;;;19.15;10.45;;;12.00;99.90;;;;;;4916556;29;20055;-87
2021/10/14 07:20:11;;;;;;;25.00;12.07;;;12.20;99.90;;;;;;4913147;29;20064;-85
2021/10/14 07:22:42;;;;;;;;;;;12.10;99.90;;;;;;4913217;29;20064;-87
2021/10/14 07:25:19;;;;;;;21.60;10.23;;;13.30;99.90;;;;;;4922991;29;19930;-88
2021/10/14 07:28:15;;;;;;;21.15;10.32;;;12.30;99.90;;;;;;4901504;29;20483;-85
2021/10/14 07:31:42;;;;;;;;;;;;;;;;;;;;;
2021/10/14 07:52:42;;;;;;;17.33;7.28;;;13.60;99.90;;;;;;5093298;28;20430;-88
2021/10/14 07:55:10;;;;;;;14.10;6.85;;;13.80;99.90;;;;;;5092735;28;20044;-85
2021/10/14 07:57:38;;;;;;;17.02;7.28;;;13.90;99.90;;;;;;5086615;28;20131;-89
2021/10/14 08:00:07;;;;;;;15.18;6.82;;;14.00;99.90;;;;;;5086879;28;20059;-85
2021/10/14 08:02:40;;;;;;;14.68;6.65;;;14.00;99.90;;;;;;5079079;28;20053;-84
2021/10/14 08:05:11;;;;;;;11.07;6.40;;;14.10;99.90;;;;;;5087729;28;20056;-88
2021/10/14 08:07:41;;;;;;;14.00;6.05;;;14.10;99.90;;;;;;5084486;28;20045;-87
2021/10/14 08:10:09;;;;;;;16.77;6.78;;;14.20;99.90;;;;;;5074399;28;20040;-86
2021/10/14 08:12:38;;;;;;;11.75;5.40;;;14.20;99.90;;;;;;5079191;28;20052;-85
2021/10/14 08:15:06;;;;;;;16.15;7.45;;;14.30;99.90;;;;;;5084778;28;20048;-85
2021/10/14 08:17:37;;;;;;;16.38;6.55;;;14.30;99.90;;;;;;5093280;28;20422;-85
2021/10/14 08:20:06;;;;;;;9.30;5.10;;;14.30;99.90;;;;;;5092857;28;20055;-89
2021/10/14 08:22:36;;;;;;;12.07;6.03;;;14.30;99.90;;;;;;5087235;28;20052;-89
2021/10/14 08:25:09;;;;;;;14.63;5.10;;;14.30;99.90;;;;;;5072893;28;20384;-86
2021/10/14 08:27:37;;;;;;;19.42;4.75;;;14.30;99.90;;;;;;5083640;28;20044;-88
2021/10/14 08:30:05;;;;;;;10.15;4.32;;;14.30;99.90;;;;;;5091596;28;20044;-83
2021/10/14 08:32:36;;;;;;;11.63;4.75;;;14.30;99.90;;;;;;5087178;28;20056;-84
2021/10/14 08:35:05;;;;;;;14.80;4.77;;;14.30;99.90;;;;;;5071668;28;20526;-85
2021/10/14 08:37:36;;;;;;;6.10;3.70;;;14.40;99.90;;;;;;5096620;28;20308;-85
2021/10/14 08:40:05;;;;;;;9.55;3.95;;;14.50;99.90;;;;;;5077465;28;20041;-86
2021/10/14 08:42:35;;;;;;;11.90;3.65;;;14.60;99.90;;;;;;5083940;28;20067;-84
2021/10/14 08:45:07;;;;;;;7.13;2.95;;;14.70;99.90;;;;;;5074200;28;20052;-84
2021/10/14 08:47:37;;;;;;;7.25;3.83;;;14.80;99.90;;;;;;5088151;28;20047;-84
2021/10/14 08:50:08;;;;;;;7.50;3.53;;;15.00;99.90;;;;;;5078027;28;20055;-84
2021/10/14 08:52:37;;;;;;;7.70;3.60;;;15.10;99.90;;;;;;5076945;28;20059;-91
2021/10/14 08:55:05;;;;;;;8.60;3.20;;;15.30;99.90;;;;;;5071434;28;20041;-85
2021/10/14 08:57:44;;;;;;;6.85;3.42;;;15.40;99.90;;;;;;5073597;28;20056;-84
2021/10/14 09:00:13;;;;;;;6.85;3.53;;;15.50;99.90;;;;;;5072930;28;20063;-87
2021/10/14 09:02:41;;;;;;;7.25;2.85;;;15.70;99.90;;;;;;5072335;28;20052;-85
2021/10/14 09:05:14;;;;;;;5.85;2.83;;;15.70;99.90;;;;;;5062604;28;20044;-87
2021/10/14 09:07:51;;;;;;;5.22;3.03;;;15.70;99.90;;;;;;5072084;28;20083;-88
2021/10/14 09:10:19;;;;;;;10.52;4.07;;;15.70;99.90;;;;;;5073139;28;20053;-87
2021/10/14 09:12:49;;;;;;;6.80;3.97;;;15.90;99.90;;;;;;5061990;28;20057;-88
2021/10/14 09:15:18;;;;;;;7.97;2.85;;;15.90;99.90;;;;;;5056024;28;20037;-85
2021/10/14 09:17:54;;;;;;;12.35;2.60;;;15.90;99.90;;;;;;5063302;28;20063;-85
2021/10/14 09:20:28;;;;;;;4.43;2.35;;;15.90;99.90;;;;;;5068433;28;20519;-85
2021/10/14 09:23:11;;;;;;;4.28;3.15;;;16.00;99.90;;;;;;5063377;28;20051;-85
2021/10/14 09:25:49;;;;;;;6.30;3.08;;;16.00;99.90;;;;;;5058863;28;20575;-87
2021/10/14 09:28:26;;;;;;;7.88;3.30;;;16.10;99.90;;;;;;5062395;28;20052;-85
2021/10/14 09:31:02;;;;;;;6.80;3.00;;;16.10;99.90;;;;;;5063478;28;20044;-86
2021/10/14 09:33:35;;;;;;;6.70;3.10;;;16.00;99.90;;;;;;5062912;28;20583;-85
2021/10/14 09:36:24;;;;;;;7.68;2.78;;;15.90;99.90;;;;;;5078300;28;20057;-86
2021/10/14 09:39:03;;;;;;;6.13;2.75;;;15.80;99.90;;;;;;5073952;28;20053;-88
2021/10/14 09:41:38;;;;;;;5.90;3.30;;;15.70;99.90;;;;;;5089538;28;20052;-88
2021/10/14 09:44:07;;;;;;;9.30;3.88;;;15.70;99.90;;;;;;5088573;28;20048;-83
2021/10/14 09:46:44;;;;;;;5.05;2.35;;;15.70;99.90;;;;;;5079464;28;20045;-88
2021/10/14 09:49:28;;;;;;;6.97;2.67;;;15.70;99.90;;;;;;5078474;28;20057;-84
2021/10/14 09:52:02;;;;;;;4.35;2.15;;;15.80;99.90;;;;;;5079374;28;20051;-88
2021/10/14 09:54:33;;;;;;;4.25;2.47;;;15.80;99.90;;;;;;5074561;28;20048;-84
2021/10/14 09:57:01;;;;;;;7.28;2.83;;;15.80;99.90;;;;;;5080257;28;20049;-85
2021/10/14 09:59:31;;;;;;;9.77;2.83;;;15.90;99.90;;;;;;5060634;28;20045;-86
2021/10/14 10:02:03;;;;;;;8.38;2.85;;;15.90;99.90;;;;;;5073772;28;20044;-86
2021/10/14 10:04:32;;;;;;;6.45;3.05;;;16.00;99.90;;;;;;5060247;28;20049;-85
2021/10/14 10:07:04;;;;;;;8.32;2.70;;;16.00;99.90;;;;;;5049953;28;20056;-84
2021/10/14 10:09:39;;;;;;;7.32;3.75;;;16.00;99.90;;;;;;5078809;28;20460;-86
2021/10/14 10:12:08;;;;;;;6.20;2.67;;;16.00;99.90;;;;;;5059152;28;20065;-84
2021/10/14 10:14:36;;;;;;;4.03;2.35;;;16.00;99.90;;;;;;5059153;28;20049;-89
2021/10/14 10:17:11;;;;;;;6.35;2.85;;;16.10;99.90;;;;;;5072795;28;20045;-86
2021/10/14 10:19:50;;;;;;;9.00;2.67;;;16.20;99.90;;;;;;5076545;28;20053;-89
2021/10/14 10:22:48;;;;;;;6.78;2.67;;;16.40;99.90;;;;;;5077368;28;20063;-86
2021/10/14 10:25:22;;;;;;;5.18;2.35;;;16.50;99.90;;;;;;5080678;28;20045;-85
2021/10/14 10:27:54;;;;;;;6.05;2.50;;;16.70;99.90;;;;;;5071640;28;20101;-86
2021/10/14 10:30:34;;;;;;;3.53;2.03;;;16.80;99.90;;;;;;5059963;28;20048;-83
2021/10/14 10:33:06;;;;;;;2.78;1.63;;;17.00;99.90;;;;;;5070999;28;20048;-85
2021/10/14 10:35:38;;;;;;;8.73;2.80;;;17.10;99.90;;;;;;5070297;28;20388;-84
2021/10/14 10:38:27;;;;;;;2.42;1.77;;;17.10;99.90;;;;;;5080383;28;20051;-85
2021/10/14 10:40:58;;;;;;;5.30;2.25;;;17.00;99.90;;;;;;5073842;28;20052;-89
2021/10/14 10:43:29;;;;;;;2.53;1.40;;;16.90;99.90;;;;;;5065236;28;20037;-87
2021/10/14 10:46:08;;;;;;;1.80;1.45;;;16.90;99.90;;;;;;5078851;28;20440;-83
2021/10/14 10:49:17;;;;;;;3.75;1.30;;;16.80;99.90;;;;;;5042137;28;20045;-87
2021/10/14 10:51:44;;;;;;;2.08;1.20;;;16.70;99.90;;;;;;5075431;28;20052;-84
2021/10/14 10:54:39;;;;;;;4.00;1.45;;;16.60;99.90;;;;;;5064997;28;20063;-87
2021/10/14 10:57:47;;;;;;;3.00;1.90;;;16.60;99.90;;;;;;5066018;28;20037;-85
2021/10/14 11:00:20;;;;;;;4.50;1.80;;;16.50;99.90;;;;;;5066229;28;20060;-87
2021/10/14 11:03:14;;;;;;;3.65;1.23;;;16.40;99.90;;;;;;5061991;28;20061;-87
2021/10/14 11:05:48;;;;;;;3.22;1.30;;;16.40;99.90;;;;;;5072249;28;20049;-89
2021/10/14 11:08:37;;;;;;;6.72;1.63;;;16.30;99.90;;;;;;5069566;28;20045;-86
2021/10/14 11:11:12;;;;;;;2.30;1.10;;;16.30;99.90;;;;;;5075524;28;20063;-84
2021/10/14 11:13:44;;;;;;;3.40;1.27;;;16.30;99.90;;;;;;5070595;28;20056;-89
2021/10/14 11:16:16;;;;;;;3.15;1.70;;;16.30;99.90;;;;;;5060342;28;20056;-88
2021/10/14 11:18:52;;;;;;;5.95;2.00;;;16.20;99.90;;;;;;5073238;28;20052;-93
2021/10/14 11:21:36;;;;;;;2.63;1.58;;;16.20;99.90;;;;;;5060985;28;20060;-86
2021/10/14 11:24:05;;;;;;;5.30;1.70;;;16.10;99.90;;;;;;5074632;28;20064;-88
2021/10/14 11:26:42;;;;;;;4.00;1.40;;;16.10;99.90;;;;;;5056661;28;20058;-85
2021/10/14 11:29:25;;;;;;;5.60;1.40;;;16.20;99.90;;;;;;5054162;28;20044;-92
2021/10/14 11:32:06;;;;;;;;;;;16.20;99.90;;;;;;5070958;28;20045;-91
2021/10/14 11:34:47;;;;;;;3.08;1.80;;;16.40;99.90;;;;;;5065066;28;19927;-92
2021/10/14 11:37:21;;;;;;;6.68;2.10;;;16.50;99.90;;;;;;5072986;28;20055;-86
2021/10/14 11:39:50;;;;;;;4.55;1.63;;;16.50;99.90;;;;;;5057142;28;20130;-84
2021/10/14 11:42:22;;;;;;;4.78;1.83;;;16.70;99.90;;;;;;5056798;28;20410;-88
2021/10/14 11:44:58;;;;;;;4.82;1.83;;;16.70;99.90;;;;;;5070107;28;20056;-87
2021/10/14 11:47:41;;;;;;;8.52;2.20;;;16.80;99.90;;;;;;5054379;28;20212;-85
2021/10/14 11:50:13;;;;;;;6.65;1.63;;;16.90;99.90;;;;;;5061648;28;20049;-83
2021/10/14 11:52:42;;;;;;;2.15;1.35;;;16.90;99.90;;;;;;5035523;28;20041;-85
2021/10/14 11:55:11;;;;;;;2.08;1.40;;;16.80;99.90;;;;;;5053354;28;20060;-86
2021/10/14 11:57:42;;;;;;;5.03;1.48;;;16.80;99.90;;;;;;5060220;28;20396;-86
2021/10/14 12:00:11;;;;;;;3.50;2.33;;;16.70;99.90;;;;;;5044646;28;20055;-87
2021/10/14 12:02:45;;;;;;;4.38;1.30;;;16.60;99.90;;;;;;5047023;28;20045;-84
2021/10/14 12:05:17;;;;;;;6.13;1.67;;;16.60;99.90;;;;;;5055238;28;20071;-85
2021/10/14 12:07:46;;;;;;;2.40;1.40;;;16.60;99.90;;;;;;5058541;28;20052;-82
2021/10/14 12:11:02;;;;;;;9.50;1.70;;;16.60;99.90;;;;;;5041826;28;20052;-84
2021/10/14 12:13:31;;;;;;;4.40;2.10;;;16.70;99.90;;;;;;5061586;28;20056;-84
2021/10/14 12:16:11;;;;;;;5.23;2.23;;;16.70;99.90;;;;;;5073641;28;20049;-86
2021/10/14 12:18:40;;;;;;;5.13;1.98;;;16.70;99.90;;;;;;5048781;28;20053;-86
2021/10/14 12:21:33;;;;;;;1.83;1.33;;;16.80;99.90;;;;;;5058186;28;20056;-86
2021/10/14 12:24:34;;;;;;;8.18;1.63;;;17.00;99.90;;;;;;5059512;28;20057;-85
2021/10/14 12:27:05;;;;;;;3.25;1.77;;;17.10;99.90;;;;;;5037737;28;20044;-84
2021/10/14 12:29:44;;;;;;;6.18;2.25;;;17.20;99.90;;;;;;5039829;28;20049;-85
2021/10/14 12:32:18;;;;;;;5.30;1.80;;;17.20;99.90;;;;;;5059798;28;20404;-86
2021/10/14 12:34:58;;;;;;;4.85;1.50;;;17.20;99.90;;;;;;5058266;28;20057;-84
2021/10/14 12:37:30;;;;;;;3.95;1.80;;;17.30;99.90;;;;;;5058064;28;20051;-85
2021/10/14 12:40:10;;;;;;;5.82;1.70;;;17.30;99.90;;;;;;5062736;28;20044;-87
2021/10/14 12:48:22;;;;;;;9.68;2.15;;;17.70;99.90;;;;;;5060783;28;20057;-89
2021/10/14 12:53:54;;;;;;;4.82;2.05;;;17.80;99.90;;;;;;5056294;28;20059;-82
2021/10/14 12:56:41;;;;;;;4.78;1.77;;;17.80;99.90;;;;;;5055009;28;20044;-85
2021/10/14 12:59:11;;;;;;;3.88;1.85;;;17.80;99.90;;;;;;5054700;28;20044;-84
2021/10/14 13:01:42;;;;;;;3.92;1.45;;;17.80;99.90;;;;;;5053007;28;20057;-85
2021/10/14 13:04:10;;;;;;;8.40;2.05;;;17.80;99.90;;;;;;5063207;28;20049;-86
2021/10/14 13:06:38;;;;;;;5.97;2.05;;;17.80;99.90;;;;;;5062966;28;20048;-84
2021/10/14 13:09:08;;;;;;;5.15;1.90;;;17.80;99.90;;;;;;5071765;28;20048;-84
2021/10/14 13:11:36;;;;;;;3.47;1.77;;;17.80;99.90;;;;;;5055718;28;20060;-85
2021/10/14 13:14:37;;;;;;;3.63;1.58;;;17.80;99.90;;;;;;5040306;28;20056;-85
2021/10/14 13:17:06;;;;;;;4.53;1.80;;;17.80;99.90;;;;;;5059034;28;20041;-84
2021/10/14 13:19:34;;;;;;;5.85;1.75;;;17.90;99.90;;;;;;5059638;28;20044;-84
2021/10/14 13:22:02;;;;;;;3.25;1.60;;;18.00;99.90;;;;;;5061276;28;20052;-85
2021/10/14 13:24:31;;;;;;;4.30;2.10;;;18.10;99.90;;;;;;5056877;28;20053;-85
2021/10/14 13:27:02;;;;;;;4.25;1.50;;;18.10;99.90;;;;;;5054485;28;20099;-86
2021/10/14 13:29:32;;;;;;;10.15;2.83;;;18.10;99.90;;;;;;5073679;28;20048;-84
2021/10/14 13:32:04;;;;;;;7.40;3.22;;;18.10;99.90;;;;;;5057833;28;20111;-83
2021/10/14 13:34:32;;;;;;;7.25;2.67;;;18.10;99.50;;;;;;5048007;28;20052;-83
2021/10/14 13:37:09;;;;;;;8.75;2.13;;;18.10;99.60;;;;;;5068482;28;20048;-86
2021/10/14 13:39:40;;;;;;;7.30;3.28;;;18.10;99.50;;;;;;5064516;28;20641;-84
2021/10/14 13:42:08;;;;;;;5.38;2.15;;;18.00;99.70;;;;;;5051102;28;20052;-85
2021/10/14 13:44:37;;;;;;;6.78;2.20;;;18.10;99.50;;;;;;5045194;28;20064;-84
2021/10/14 13:47:07;;;;;;;5.03;2.00;;;17.90;99.70;;;;;;5038342;28;20056;-85
2021/10/14 13:49:37;;;;;;;7.45;2.95;;;18.00;99.60;;;;;;5054258;28;20067;-82
2021/10/14 13:52:16;;;;;;;10.15;2.40;;;18.00;99.30;;;;;;5071447;28;20079;-84
2021/10/14 13:54:47;;;;;;;9.30;2.17;;;18.00;99.60;;;;;;5077039;28;20045;-84
2021/10/14 13:57:32;;;;;;;11.70;3.40;;;18.00;99.60;;;;;;5057889;28;20041;-85
2021/10/14 14:00:00;;;;;;;9.25;2.22;;;18.10;99.50;;;;;;5058666;28;20045;-82
2021/10/14 14:02:51;;;;;;;9.95;3.80;;;18.10;99.50;;;;;;5070084;28;20592;-83
2021/10/14 14:05:25;;;;;;;12.55;4.38;;;18.20;99.70;;;;;;5078078;28;20056;-84
2021/10/14 14:07:57;;;;;;;3.78;1.85;;;18.30;99.60;;;;;;5095044;28;20044;-86
2021/10/14 14:10:27;;;;;;;3.40;1.65;;;18.40;99.50;;;;;;4999798;28;20060;-86
2021/10/14 14:13:02;;;;;;;2.45;1.38;;;18.40;99.20;;;;;;5047199;28;20049;-85
2021/10/14 14:15:47;;;;;;;5.63;1.73;;;18.40;99.00;;;;;;5081325;28;20088;-84
2021/10/14 14:18:24;;;;;;;3.67;1.48;;;18.40;99.10;;;;;;5078662;28;20090;-83
2021/10/14 14:21:00;;;;;;;3.17;1.60;;;18.30;99.30;;;;;;5093778;28;20052;-84
2021/10/14 14:23:41;;;;;;;8.27;2.25;;;18.30;99.30;;;;;;5093915;28;20053;-87
2021/10/14 14:26:11;;;;;;;3.40;1.95;;;18.30;99.50;;;;;;5084016;28;20048;-84
2021/10/14 14:28:51;;;;;;;4.88;1.60;;;18.30;99.90;;;;;;5077876;28;20052;-85
2021/10/14 14:31:28;;;;;;;4.75;1.98;;;18.30;99.90;;;;;;5080944;28;20056;-86
2021/10/14 14:34:00;;;;;;;6.55;1.92;;;18.30;99.90;;;;;;5064840;28;20061;-84
2021/10/14 14:36:38;;;;;;;4.05;2.15;;;18.20;99.70;;;;;;5082224;28;20051;-84
2021/10/14 14:39:09;;;;;;;3.17;1.63;;;18.20;99.90;;;;;;5075917;28;20060;-87
2021/10/14 14:41:47;;;;;;;8.23;1.75;;;18.10;99.90;;;;;;5074948;28;20048;-83
2021/10/14 14:44:26;;;;;;;3.47;1.75;;;18.00;99.90;;;;;;5073793;28;20055;-85
2021/10/14 14:47:04;;;;;;;3.13;1.27;;;18.00;99.90;;;;;;5062938;28;20037;-84